Terminal Aerodrome Forecast
Issued by NWS

Home | Current Version | Previous Version | Text Only | Print | Product List | Glossary On
Versions: 1 2 3 4 5 6 7 8 9 10 11 12 13 14
000
FTUS42 KMLB 302300 RRA
TAFISM
TAF
KISM 302354Z 3100/3124 35007KT P6SM SCT060
      TEMPO 3101/3102 10008KT
     FM310300 VRB02KT P6SM SCT250
     FM311400 15004KT P6SM SCT025
     FM312100 18006KT P6SM VCTS SCT040CB
      AMD NOT SKED 3102/3111=

USA.gov is the U.S. government's official web portal to all federal, state and local government web resources and services.